Time;durP1;ratioP1;P1;durP2;ratioP2;P2;SDS_P1;SDS_P2;PMS_P1;PMS_P2;Temp;Humidity;BMP_temperature;BMP_pressure;BME280_temperature;BME280_humidity;BME280_pressure;Samples;Min_cycle;Max_cycle;Signal;HPM_P1;HPM_P2
2023/04/26 00:00:42;;;;;;;8.30;2.00;;;4.70;99.90;;;;;;5073641;28;20039;-75
2023/04/26 00:03:09;;;;;;;9.10;1.83;;;4.70;99.90;;;;;;5074249;28;20043;-75
2023/04/26 00:05:36;;;;;;;4.88;1.67;;;4.70;99.90;;;;;;5073390;28;20082;-75
2023/04/26 00:08:03;;;;;;;4.72;1.88;;;4.70;99.90;;;;;;5073982;28;20122;-75
2023/04/26 00:10:29;;;;;;;4.82;1.90;;;4.80;99.90;;;;;;5073805;28;20501;-75
2023/04/26 00:12:55;;;;;;;3.97;2.38;;;4.80;99.90;;;;;;5073679;28;20466;-75
2023/04/26 00:15:21;;;;;;;7.43;2.03;;;4.80;99.90;;;;;;5040336;28;20044;-75
2023/04/26 00:17:46;;;;;;;7.93;2.13;;;4.90;99.90;;;;;;5023936;28;20782;-75
2023/04/26 00:20:12;;;;;;;3.80;1.77;;;5.10;99.90;;;;;;5073596;28;20282;-75
2023/04/26 00:22:38;;;;;;;6.65;1.95;;;4.90;99.90;;;;;;5056987;28;20079;-75
2023/04/26 00:25:04;;;;;;;6.85;1.98;;;5.60;99.90;;;;;;5073285;28;20043;-75
2023/04/26 00:27:30;;;;;;;2.95;1.55;;;4.90;99.90;;;;;;5056588;28;20204;-75
2023/04/26 00:29:56;;;;;;;7.65;1.75;;;4.90;99.90;;;;;;5073422;28;20122;-75
2023/04/26 00:32:22;;;;;;;5.57;1.35;;;4.90;99.90;;;;;;5073541;28;20036;-75
2023/04/26 00:34:47;;;;;;;7.13;1.70;;;5.40;99.90;;;;;;5073150;28;20111;-76
2023/04/26 00:37:13;;;;;;;6.57;1.63;;;4.90;99.90;;;;;;5073484;28;20404;-75
2023/04/26 00:39:39;;;;;;;4.97;1.90;;;4.90;99.90;;;;;;5056911;28;20048;-75
2023/04/26 00:42:05;;;;;;;5.07;1.67;;;4.80;99.90;;;;;;5073304;28;20042;-75
2023/04/26 00:44:30;;;;;;;10.10;1.80;;;4.80;99.90;;;;;;5072825;28;20036;-75
2023/04/26 00:46:56;;;;;;;5.38;1.77;;;5.00;99.90;;;;;;5072862;28;21285;-75
2023/04/26 00:49:24;;;;;;;3.80;2.00;;;4.80;99.90;;;;;;5073345;28;20040;-75
2023/04/26 00:51:52;;;;;;;8.75;1.92;;;4.80;99.90;;;;;;5072653;28;20043;-75
2023/04/26 00:54:19;;;;;;;5.47;1.70;;;4.50;99.90;;;;;;5072935;28;20032;-75
2023/04/26 00:56:45;;;;;;;7.60;1.73;;;4.60;99.90;;;;;;5072953;28;20485;-75
2023/04/26 00:59:11;;;;;;;4.20;1.65;;;4.50;99.90;;;;;;5072967;28;20036;-75
2023/04/26 01:01:37;;;;;;;5.90;1.60;;;4.50;99.90;;;;;;5056140;28;20532;-75
2023/04/26 01:04:03;;;;;;;6.68;1.83;;;4.40;99.90;;;;;;5056295;28;20493;-75
2023/04/26 01:06:34;;;;;;;4.93;2.03;;;4.40;99.90;;;;;;5073017;28;20043;-75
2023/04/26 01:09:14;;;;;;;4.78;1.75;;;4.30;99.90;;;;;;5073119;28;20093;-76
2023/04/26 01:11:40;;;;;;;7.45;1.88;;;4.30;99.90;;;;;;5072300;28;20044;-75
2023/04/26 01:14:07;;;;;;;7.28;2.00;;;4.50;99.90;;;;;;5055572;28;20052;-74
2023/04/26 01:16:34;;;;;;;5.72;2.70;;;4.50;99.90;;;;;;5072482;28;20040;-75
2023/04/26 01:19:08;;;;;;;6.18;1.95;;;4.30;99.90;;;;;;5056022;28;20024;-75
2023/04/26 01:21:34;;;;;;;4.68;1.90;;;4.20;99.90;;;;;;5055844;28;20389;-74
2023/04/26 01:24:00;;;;;;;7.07;2.25;;;4.20;99.90;;;;;;5055959;28;20040;-74
2023/04/26 01:26:26;;;;;;;6.50;1.90;;;4.10;99.90;;;;;;5072481;28;20052;-74
2023/04/26 01:28:51;;;;;;;8.10;1.85;;;4.20;99.90;;;;;;5071769;28;20048;-74
2023/04/26 01:31:17;;;;;;;6.17;2.37;;;4.90;99.90;;;;;;5055877;28;20109;-74
2023/04/26 01:33:43;;;;;;;7.20;2.17;;;4.00;99.90;;;;;;5072244;28;20285;-74
2023/04/26 01:36:11;;;;;;;8.70;2.07;;;4.10;99.90;;;;;;5072750;28;20051;-75
2023/04/26 01:38:37;;;;;;;7.38;1.90;;;4.00;99.90;;;;;;5055438;28;20075;-75
2023/04/26 01:41:03;;;;;;;5.60;1.73;;;3.90;99.90;;;;;;5055689;28;20122;-75
2023/04/26 01:43:29;;;;;;;6.40;1.95;;;3.90;99.90;;;;;;5072220;28;20051;-75
2023/04/26 01:45:55;;;;;;;11.73;2.53;;;3.90;99.90;;;;;;5038620;28;20548;-75
2023/04/26 01:48:20;;;;;;;5.40;1.70;;;3.90;99.90;;;;;;5055397;28;20058;-74
2023/04/26 01:50:46;;;;;;;4.45;2.17;;;3.90;99.90;;;;;;5071839;28;20481;-74
2023/04/26 01:53:12;;;;;;;8.43;2.30;;;3.90;99.90;;;;;;5055348;28;20043;-74
2023/04/26 01:55:38;;;;;;;9.43;2.00;;;3.90;99.90;;;;;;5071266;28;20040;-74
2023/04/26 01:58:03;;;;;;;3.47;1.63;;;4.20;99.90;;;;;;5071094;28;20040;-74
2023/04/26 02:00:29;;;;;;;6.63;2.10;;;3.90;99.90;;;;;;5055479;28;20306;-74
2023/04/26 02:02:55;;;;;;;6.43;1.95;;;4.00;99.90;;;;;;5038229;28;20047;-74
2023/04/26 02:05:22;;;;;;;6.25;1.90;;;4.00;99.90;;;;;;5071817;28;20044;-74
2023/04/26 02:07:48;;;;;;;7.00;1.92;;;4.00;99.90;;;;;;5071532;28;20047;-74
2023/04/26 02:10:14;;;;;;;4.40;2.03;;;4.00;99.90;;;;;;5071338;28;20040;-75
2023/04/26 02:12:40;;;;;;;7.00;1.88;;;4.00;99.90;;;;;;5071242;28;20528;-75
2023/04/26 02:15:07;;;;;;;7.63;2.42;;;3.90;99.90;;;;;;5071501;28;20124;-75
2023/04/26 02:17:33;;;;;;;6.40;1.90;;;4.00;99.90;;;;;;5054957;28;20048;-75
2023/04/26 02:19:58;;;;;;;6.33;1.83;;;4.00;99.90;;;;;;5071167;28;20032;-75
2023/04/26 02:22:25;;;;;;;4.00;1.73;;;4.00;99.90;;;;;;5054895;28;20289;-75
2023/04/26 02:24:51;;;;;;;7.05;1.92;;;4.70;99.90;;;;;;5054709;28;20065;-75
2023/04/26 02:27:17;;;;;;;7.22;1.88;;;4.00;99.90;;;;;;5071805;28;20465;-75
2023/04/26 02:29:43;;;;;;;5.85;2.22;;;4.60;99.90;;;;;;5071151;28;20341;-75
2023/04/26 02:32:09;;;;;;;6.43;2.13;;;4.80;99.90;;;;;;5071203;28;20047;-75
2023/04/26 02:34:35;;;;;;;3.90;1.90;;;4.00;99.90;;;;;;5054800;28;20285;-75
2023/04/26 02:37:01;;;;;;;6.22;1.83;;;4.00;99.90;;;;;;5070835;28;20624;-75
2023/04/26 02:39:26;;;;;;;7.25;1.98;;;3.90;99.90;;;;;;5071413;28;20508;-75
2023/04/26 02:41:52;;;;;;;6.47;1.80;;;3.90;99.90;;;;;;5070892;28;20036;-75
2023/04/26 02:44:18;;;;;;;5.20;1.93;;;3.90;99.90;;;;;;5071692;28;20334;-75
2023/04/26 02:46:43;;;;;;;3.33;1.63;;;4.40;99.90;;;;;;5054449;28;20032;-75
2023/04/26 02:49:09;;;;;;;8.93;2.27;;;3.90;99.90;;;;;;5071243;28;20032;-75
2023/04/26 02:51:38;;;;;;;6.45;1.98;;;4.70;99.90;;;;;;5071377;28;20308;-75
2023/04/26 02:54:04;;;;;;;6.77;1.97;;;3.90;99.90;;;;;;5071093;28;20032;-75
2023/04/26 02:56:30;;;;;;;5.40;1.70;;;3.80;99.90;;;;;;5071310;28;20036;-74
2023/04/26 02:58:56;;;;;;;9.30;1.77;;;3.90;99.90;;;;;;5071004;28;20500;-74
2023/04/26 03:01:21;;;;;;;4.55;1.67;;;4.20;99.90;;;;;;5071195;28;20126;-75
2023/04/26 03:03:47;;;;;;;3.87;2.03;;;4.90;99.90;;;;;;5070819;28;20089;-74
2023/04/26 03:06:13;;;;;;;2.83;1.77;;;4.20;99.90;;;;;;5054320;28;20341;-75
2023/04/26 03:08:38;;;;;;;7.63;1.73;;;4.00;99.90;;;;;;5070922;28;20389;-74
2023/04/26 03:11:04;;;;;;;5.80;1.80;;;4.10;99.90;;;;;;5057547;28;20435;-75
2023/04/26 03:13:30;;;;;;;7.03;2.23;;;4.00;99.90;;;;;;5058282;28;20636;-75
2023/04/26 03:15:55;;;;;;;7.47;1.87;;;3.80;99.90;;;;;;5074854;28;20649;-75
2023/04/26 03:18:21;;;;;;;7.03;1.53;;;3.90;99.90;;;;;;5057958;28;20278;-74
2023/04/26 03:20:47;;;;;;;3.73;1.73;;;3.90;99.90;;;;;;5074724;28;20271;-74
2023/04/26 03:23:13;;;;;;;4.68;1.50;;;4.10;99.90;;;;;;5075063;28;20050;-74
2023/04/26 03:25:38;;;;;;;3.53;1.88;;;4.60;99.90;;;;;;5074918;28;20107;-73
2023/04/26 03:28:04;;;;;;;3.92;1.40;;;4.80;99.90;;;;;;5074431;28;20036;-74
2023/04/26 03:30:30;;;;;;;4.40;2.10;;;4.10;99.90;;;;;;5074650;28;20089;-73
2023/04/26 03:32:56;;;;;;;14.03;2.53;;;4.50;99.90;;;;;;5074237;28;20513;-73
2023/04/26 03:35:22;;;;;;;3.42;1.52;;;4.30;99.90;;;;;;5058407;28;20286;-74
2023/04/26 03:37:48;;;;;;;2.35;1.48;;;4.30;99.90;;;;;;5057441;28;20028;-74
2023/04/26 03:40:13;;;;;;;7.47;1.90;;;4.30;99.90;;;;;;5074683;28;20447;-74
2023/04/26 03:42:39;;;;;;;5.30;1.55;;;4.40;99.90;;;;;;5074751;28;20093;-74
2023/04/26 03:45:05;;;;;;;3.03;1.53;;;4.50;99.90;;;;;;5074177;28;20036;-74
2023/04/26 03:47:31;;;;;;;4.35;1.45;;;4.40;99.90;;;;;;5074333;28;20286;-74
2023/04/26 03:49:57;;;;;;;6.97;1.58;;;4.40;99.90;;;;;;5073675;28;20585;-74
2023/04/26 03:52:26;;;;;;;6.32;1.63;;;4.50;99.90;;;;;;5074154;28;20565;-74
2023/04/26 03:54:52;;;;;;;7.65;1.98;;;4.50;99.90;;;;;;5073949;28;20040;-75
2023/04/26 03:57:17;;;;;;;4.90;1.50;;;4.50;99.90;;;;;;5057432;28;20080;-75
2023/04/26 03:59:43;;;;;;;5.20;1.67;;;4.50;99.90;;;;;;5057501;28;20446;-75
2023/04/26 04:02:09;;;;;;;3.17;1.53;;;4.50;99.90;;;;;;5073799;28;20067;-74
2023/04/26 04:04:36;;;;;;;4.27;1.80;;;4.50;99.90;;;;;;5074351;28;20040;-75
2023/04/26 04:07:01;;;;;;;5.15;1.60;;;5.00;99.90;;;;;;5073710;28;20781;-75
2023/04/26 04:09:27;;;;;;;2.67;1.50;;;4.50;99.90;;;;;;5073780;28;20122;-74
2023/04/26 04:11:53;;;;;;;5.23;1.97;;;4.40;99.90;;;;;;5073545;28;20512;-75
2023/04/26 04:14:19;;;;;;;4.60;2.38;;;5.00;99.90;;;;;;5057223;28;20667;-76
2023/04/26 04:16:45;;;;;;;6.18;1.65;;;4.60;99.90;;;;;;5073972;28;20036;-75
2023/04/26 04:19:11;;;;;;;3.83;1.80;;;4.60;99.90;;;;;;5056765;28;20063;-76
2023/04/26 04:21:36;;;;;;;8.37;1.80;;;4.80;99.90;;;;;;5073658;28;20829;-77
2023/04/26 04:24:02;;;;;;;4.43;1.60;;;4.50;99.90;;;;;;5056727;28;20033;-77
2023/04/26 04:26:28;;;;;;;3.42;1.38;;;4.50;99.90;;;;;;5073822;28;20278;-77
2023/04/26 04:28:54;;;;;;;3.53;1.87;;;4.60;99.90;;;;;;5073062;28;20047;-76
2023/04/26 04:31:21;;;;;;;5.23;1.60;;;4.60;99.90;;;;;;5056860;28;20150;-74
2023/04/26 04:33:47;;;;;;;3.25;1.40;;;4.70;99.90;;;;;;5073446;28;20480;-75
2023/04/26 04:36:16;;;;;;;4.40;2.15;;;4.70;99.90;;;;;;5056437;28;20072;-74
2023/04/26 04:38:43;;;;;;;5.07;1.65;;;4.70;99.90;;;;;;5071307;28;20043;-75
2023/04/26 04:41:09;;;;;;;5.95;1.70;;;4.90;99.90;;;;;;5039979;28;20036;-75
2023/04/26 04:43:35;;;;;;;5.72;2.08;;;4.70;99.90;;;;;;5073374;28;20050;-75
2023/04/26 04:46:00;;;;;;;4.25;1.48;;;4.80;99.90;;;;;;5072969;28;20039;-75
2023/04/26 04:48:26;;;;;;;3.87;1.80;;;4.80;99.90;;;;;;5104517;28;20390;-75
2023/04/26 04:50:52;;;;;;;5.63;1.70;;;5.10;99.90;;;;;;5073055;28;20046;-75
2023/04/26 04:53:17;;;;;;;6.20;1.73;;;5.00;99.90;;;;;;5073133;28;20294;-75
2023/04/26 04:55:43;;;;;;;5.35;1.48;;;4.90;99.90;;;;;;5073366;28;20050;-74
2023/04/26 04:58:09;;;;;;;9.02;1.80;;;4.90;99.90;;;;;;5072616;28;20075;-74
2023/04/26 05:00:36;;;;;;;5.78;1.40;;;4.90;99.90;;;;;;5073688;28;20036;-74
2023/04/26 05:03:02;;;;;;;4.45;1.70;;;4.90;99.90;;;;;;5072643;28;20048;-74
2023/04/26 05:05:28;;;;;;;4.00;2.10;;;4.90;99.90;;;;;;5073072;28;20075;-75
2023/04/26 05:07:54;;;;;;;10.15;2.00;;;4.90;99.90;;;;;;5073195;28;20527;-74
2023/04/26 05:10:19;;;;;;;4.20;1.70;;;4.90;99.90;;;;;;5056856;28;20130;-73
2023/04/26 05:12:45;;;;;;;5.53;1.90;;;4.80;99.90;;;;;;5073055;28;20301;-74
2023/04/26 05:15:11;;;;;;;3.65;1.85;;;4.80;99.90;;;;;;5072627;28;20618;-75
2023/04/26 05:17:37;;;;;;;6.00;1.58;;;4.80;99.90;;;;;;5056686;28;20032;-73
2023/04/26 05:20:06;;;;;;;5.60;2.15;;;4.80;99.90;;;;;;5072692;28;20039;-74
2023/04/26 05:22:34;;;;;;;5.45;1.70;;;4.80;99.90;;;;;;5056466;28;20036;-74
2023/04/26 05:24:59;;;;;;;4.30;1.80;;;4.70;99.90;;;;;;5055994;28;20074;-74
2023/04/26 05:27:27;;;;;;;3.50;1.67;;;4.70;99.90;;;;;;5073107;28;20083;-74
2023/04/26 05:29:53;;;;;;;4.53;2.28;;;4.70;99.90;;;;;;5072726;28;20046;-74
2023/04/26 05:32:18;;;;;;;2.85;1.40;;;4.70;99.90;;;;;;5071284;28;20040;-74
2023/04/26 05:34:44;;;;;;;3.80;1.53;;;4.70;99.90;;;;;;5072966;28;20032;-74
2023/04/26 05:37:10;;;;;;;5.20;1.40;;;4.70;99.90;;;;;;5055560;28;20114;-74
2023/04/26 05:39:36;;;;;;;7.57;1.60;;;4.80;99.90;;;;;;5072876;28;20389;-74
2023/04/26 05:42:02;;;;;;;3.88;1.50;;;4.90;99.90;;;;;;5072447;28;20488;-74
2023/04/26 05:44:28;;;;;;;5.32;1.85;;;5.10;99.90;;;;;;5072551;28;20119;-74
2023/04/26 05:46:54;;;;;;;4.80;1.80;;;5.20;99.90;;;;;;5055792;28;20085;-73
2023/04/26 05:49:19;;;;;;;5.10;1.80;;;5.60;99.90;;;;;;5055780;28;20425;-74
2023/04/26 05:51:45;;;;;;;4.57;1.60;;;5.70;99.90;;;;;;5072503;28;20309;-74
2023/04/26 05:54:11;;;;;;;5.90;2.00;;;6.10;99.90;;;;;;5071918;28;20032;-74
2023/04/26 05:56:36;;;;;;;8.13;1.70;;;6.10;99.90;;;;;;5072358;28;20892;-74
2023/04/26 05:59:02;;;;;;;4.00;1.60;;;6.20;99.90;;;;;;5072056;28;20044;-73
2023/04/26 06:01:28;;;;;;;4.53;1.63;;;6.20;99.90;;;;;;5072083;28;20285;-75
2023/04/26 06:03:53;;;;;;;3.40;1.90;;;6.30;99.90;;;;;;5055422;28;20432;-74
2023/04/26 06:06:19;;;;;;;7.53;1.65;;;6.40;99.90;;;;;;5089732;28;20056;-74
2023/04/26 06:08:45;;;;;;;5.32;1.70;;;6.50;99.90;;;;;;5071660;28;20042;-74
2023/04/26 06:11:11;;;;;;;5.45;1.65;;;6.40;99.90;;;;;;5071443;28;20036;-75
2023/04/26 06:13:36;;;;;;;6.40;1.83;;;6.40;99.90;;;;;;5055070;28;20224;-75
2023/04/26 06:16:02;;;;;;;1.80;1.10;;;6.40;99.90;;;;;;5070866;28;20047;-75
2023/04/26 06:18:28;;;;;;;4.88;1.55;;;6.50;99.90;;;;;;5071320;28;20520;-74
2023/04/26 06:20:54;;;;;;;5.60;1.30;;;6.50;99.90;;;;;;5071353;28;20028;-75
2023/04/26 06:23:19;;;;;;;5.33;1.23;;;6.60;99.90;;;;;;5071003;28;20690;-75
2023/04/26 06:25:45;;;;;;;4.13;1.20;;;6.60;99.90;;;;;;5054933;28;20316;-74
2023/04/26 06:28:11;;;;;;;2.85;1.52;;;6.60;99.90;;;;;;5038061;28;20401;-75
2023/04/26 06:30:37;;;;;;;3.70;1.60;;;6.70;99.90;;;;;;5071061;28;20043;-74
2023/04/26 06:33:03;;;;;;;3.80;1.63;;;6.90;99.90;;;;;;5054466;28;20039;-73
2023/04/26 06:35:28;;;;;;;2.97;1.48;;;7.00;99.90;;;;;;5071704;28;20122;-74
2023/04/26 06:37:54;;;;;;;3.20;1.30;;;7.20;99.90;;;;;;5071911;28;20035;-75
2023/04/26 06:40:20;;;;;;;4.33;1.30;;;7.40;99.90;;;;;;5054482;28;20702;-75
2023/04/26 06:42:46;;;;;;;5.25;1.58;;;7.70;99.90;;;;;;5071187;28;20283;-75
2023/04/26 06:45:12;;;;;;;4.38;1.40;;;7.90;99.90;;;;;;5070800;28;20511;-75
2023/04/26 06:47:38;;;;;;;3.45;1.40;;;8.20;99.90;;;;;;5071402;28;20681;-75
2023/04/26 06:50:04;;;;;;;4.97;1.20;;;8.30;99.90;;;;;;5071117;28;20040;-75
2023/04/26 06:52:30;;;;;;;4.13;1.58;;;8.40;99.90;;;;;;5054919;28;20036;-74
2023/04/26 06:54:56;;;;;;;3.40;1.43;;;9.00;99.90;;;;;;5055233;28;20115;-74
2023/04/26 06:57:22;;;;;;;6.40;1.35;;;9.50;99.90;;;;;;5071518;28;20737;-74
2023/04/26 06:59:47;;;;;;;5.82;1.38;;;9.90;99.90;;;;;;5071759;28;20032;-74
2023/04/26 07:02:13;;;;;;;4.00;1.27;;;10.50;99.90;;;;;;5054810;28;20040;-75
2023/04/26 07:04:39;;;;;;;4.68;1.10;;;10.70;99.90;;;;;;5055148;28;20286;-75
2023/04/26 07:07:05;;;;;;;6.18;1.40;;;10.90;99.90;;;;;;5071464;28;20055;-74
2023/04/26 07:09:30;;;;;;;5.10;1.17;;;10.60;99.90;;;;;;5071578;28;20089;-75
2023/04/26 07:11:56;;;;;;;4.05;1.17;;;10.30;99.90;;;;;;5038499;28;20042;-74
2023/04/26 07:14:23;;;;;;;4.93;1.35;;;9.70;99.90;;;;;;5070752;28;20060;-74
2023/04/26 07:16:48;;;;;;;4.85;1.60;;;9.30;99.90;;;;;;5071418;28;20040;-74
2023/04/26 07:19:14;;;;;;;1.77;1.00;;;9.10;99.90;;;;;;5054700;28;20028;-75
2023/04/26 07:21:40;;;;;;;4.20;1.23;;;9.10;99.90;;;;;;5071539;28;20044;-75
2023/04/26 07:24:07;;;;;;;5.68;1.38;;;9.40;99.90;;;;;;5054683;28;20437;-75
2023/04/26 07:26:34;;;;;;;3.83;1.27;;;9.90;99.90;;;;;;5055093;28;20039;-75
2023/04/26 07:29:00;;;;;;;7.68;1.50;;;10.30;99.90;;;;;;5071309;28;20036;-74
2023/04/26 07:31:25;;;;;;;2.90;1.30;;;10.80;99.90;;;;;;5071169;28;20485;-75
2023/04/26 07:33:51;;;;;;;5.17;1.43;;;11.10;99.90;;;;;;5071676;28;20081;-75
2023/04/26 07:36:16;;;;;;;5.73;2.03;;;11.10;99.90;;;;;;5054865;28;20361;-75
2023/04/26 07:38:42;;;;;;;3.97;1.00;;;11.00;99.90;;;;;;5071238;28;20036;-75
2023/04/26 07:41:08;;;;;;;3.85;1.50;;;10.90;99.90;;;;;;5071209;28;20489;-75
2023/04/26 07:43:33;;;;;;;5.40;1.08;;;11.00;99.90;;;;;;5071281;28;20118;-75
2023/04/26 07:46:00;;;;;;;5.70;1.67;;;11.00;99.90;;;;;;5054534;28;20504;-75
2023/04/26 07:48:26;;;;;;;5.50;1.20;;;11.10;99.90;;;;;;5070889;28;20051;-74
2023/04/26 07:50:52;;;;;;;8.23;1.35;;;11.30;99.90;;;;;;5071356;28;20051;-75
2023/04/26 07:53:18;;;;;;;4.85;1.00;;;11.50;99.90;;;;;;5071117;28;20488;-74
2023/04/26 07:55:45;;;;;;;4.38;1.20;;;11.50;99.90;;;;;;5072168;28;20032;-75
2023/04/26 07:58:13;;;;;;;3.58;1.23;;;11.70;99.90;;;;;;5057933;28;20036;-75
2023/04/26 08:00:40;;;;;;;5.57;1.30;;;11.80;99.90;;;;;;5075298;28;20490;-75
2023/04/26 08:03:06;;;;;;;4.53;1.20;;;11.90;99.90;;;;;;5075100;28;20048;-75
2023/04/26 08:05:32;;;;;;;2.63;0.90;;;11.90;99.90;;;;;;5074966;28;20044;-74
2023/04/26 08:08:00;;;;;;;3.45;1.30;;;12.00;99.90;;;;;;5075179;28;20093;-77
2023/04/26 08:10:26;;;;;;;5.95;1.20;;;12.10;99.90;;;;;;5074697;28;20047;-75
2023/04/26 08:12:52;;;;;;;4.75;0.98;;;12.20;99.90;;;;;;5074876;28;20093;-75
2023/04/26 08:15:18;;;;;;;6.20;1.30;;;12.50;99.90;;;;;;5074404;28;20052;-75
2023/04/26 08:17:44;;;;;;;4.45;1.25;;;12.40;99.90;;;;;;5075172;28;20035;-75
2023/04/26 08:20:10;;;;;;;5.28;1.30;;;12.00;99.90;;;;;;5074609;28;20036;-75
2023/04/26 08:22:35;;;;;;;6.82;1.65;;;11.20;99.90;;;;;;5075120;28;20071;-75
2023/04/26 08:25:03;;;;;;;3.80;1.33;;;10.60;99.90;;;;;;5058049;28;20072;-75
2023/04/26 08:27:30;;;;;;;6.13;1.52;;;10.20;99.90;;;;;;5074377;28;20040;-75
2023/04/26 08:29:56;;;;;;;7.22;1.60;;;10.10;99.90;;;;;;5057983;28;20079;-75
2023/04/26 08:32:22;;;;;;;3.80;1.38;;;9.90;99.90;;;;;;5092603;28;20445;-75
2023/04/26 08:34:47;;;;;;;5.93;1.25;;;9.70;99.90;;;;;;5058286;28;20036;-75
2023/04/26 08:37:13;;;;;;;3.30;1.30;;;9.60;99.90;;;;;;5074169;28;20028;-75
2023/04/26 08:39:40;;;;;;;4.20;2.08;;;9.50;99.90;;;;;;5074712;28;20077;-75
2023/04/26 08:42:16;;;;;;;5.93;1.40;;;9.50;99.90;;;;;;5074380;28;20051;-75
2023/04/26 08:44:43;;;;;;;3.28;1.40;;;9.50;99.90;;;;;;5074463;28;20055;-75
2023/04/26 08:47:13;;;;;;;7.20;1.67;;;9.60;99.90;;;;;;5074250;28;20054;-75
2023/04/26 08:49:44;;;;;;;2.78;1.33;;;9.90;99.90;;;;;;5058016;28;20036;-75
2023/04/26 08:52:11;;;;;;;5.05;1.20;;;10.50;99.90;;;;;;5041091;28;20539;-76
2023/04/26 08:54:38;;;;;;;6.70;1.42;;;10.90;99.90;;;;;;5074347;28;20039;-75
2023/04/26 08:57:08;;;;;;;4.38;1.52;;;11.30;99.90;;;;;;5074189;28;20032;-75
2023/04/26 08:59:36;;;;;;;4.93;1.48;;;11.20;99.90;;;;;;5071744;28;20035;-76
2023/04/26 09:02:04;;;;;;;5.70;1.42;;;11.40;99.90;;;;;;5074150;28;20039;-75
2023/04/26 09:04:32;;;;;;;4.57;1.15;;;11.80;99.90;;;;;;5073890;28;20521;-75
2023/04/26 09:07:03;;;;;;;4.90;1.48;;;12.00;99.90;;;;;;5074235;28;20473;-76
2023/04/26 09:09:37;;;;;;;5.13;1.73;;;11.70;99.90;;;;;;5073274;28;20062;-76
2023/04/26 09:12:04;;;;;;;8.00;1.90;;;11.10;99.90;;;;;;5073665;28;20080;-75
2023/04/26 09:14:30;;;;;;;6.63;1.77;;;10.40;99.90;;;;;;5073454;28;20097;-75
2023/04/26 09:16:56;;;;;;;7.40;1.70;;;9.80;99.90;;;;;;5057192;28;20119;-75
2023/04/26 09:19:34;;;;;;;5.53;1.85;;;9.20;99.90;;;;;;5073308;28;20205;-74
2023/04/26 09:22:00;;;;;;;7.13;1.70;;;8.80;99.90;;;;;;5073357;28;20081;-76
2023/04/26 09:24:25;;;;;;;7.75;1.92;;;8.70;99.90;;;;;;5073237;28;20051;-76
2023/04/26 09:27:03;;;;;;;5.72;1.88;;;8.40;99.90;;;;;;5073679;28;20512;-75
2023/04/26 09:29:30;;;;;;;5.13;1.70;;;8.20;99.90;;;;;;5056389;28;20050;-75
2023/04/26 09:31:57;;;;;;;2.67;1.30;;;8.30;99.90;;;;;;5073662;28;20036;-75
2023/04/26 09:34:22;;;;;;;3.20;1.20;;;8.20;99.90;;;;;;5072413;28;20044;-76
2023/04/26 09:36:49;;;;;;;6.37;1.73;;;8.30;99.90;;;;;;5056156;28;20499;-76
2023/04/26 09:39:36;;;;;;;4.28;1.20;;;8.30;99.90;;;;;;5072507;28;21453;-76
2023/04/26 09:42:10;;;;;;;4.70;1.35;;;8.40;99.90;;;;;;5071184;28;20069;-76
2023/04/26 09:44:36;;;;;;;5.88;1.40;;;8.50;99.90;;;;;;5071767;28;20074;-75
2023/04/26 09:47:04;;;;;;;4.13;1.88;;;8.70;99.90;;;;;;5072166;28;20039;-75
2023/04/26 09:49:49;;;;;;;6.00;1.70;;;8.80;99.90;;;;;;5054981;28;20046;-76
2023/04/26 09:52:15;;;;;;;8.85;1.77;;;9.00;99.90;;;;;;5071620;28;20044;-76
2023/04/26 09:54:50;;;;;;;4.82;1.60;;;9.10;99.90;;;;;;5070762;28;20489;-76
2023/04/26 09:57:18;;;;;;;3.83;1.50;;;9.30;99.90;;;;;;5055685;28;20169;-76
2023/04/26 09:59:50;;;;;;;7.50;2.22;;;9.50;99.90;;;;;;5072407;28;20402;-76
2023/04/26 10:02:24;;;;;;;4.63;1.70;;;9.60;99.90;;;;;;5071198;28;20074;-75
2023/04/26 10:04:53;;;;;;;5.63;1.80;;;9.70;99.90;;;;;;5071215;28;20500;-76
2023/04/26 10:07:21;;;;;;;6.05;2.00;;;9.80;99.90;;;;;;5070951;28;20050;-75
2023/04/26 10:09:48;;;;;;;7.57;1.75;;;9.70;99.90;;;;;;5070944;28;20048;-75
2023/04/26 10:12:17;;;;;;;6.68;1.58;;;9.70;99.90;;;;;;5070827;28;20067;-75
2023/04/26 10:14:43;;;;;;;6.97;1.75;;;9.60;99.90;;;;;;5071134;28;20081;-76
2023/04/26 10:17:11;;;;;;;6.60;1.67;;;9.70;99.90;;;;;;5069899;28;20062;-75
2023/04/26 10:19:38;;;;;;;6.15;1.70;;;9.80;99.90;;;;;;5054787;28;20111;-75
2023/04/26 10:22:18;;;;;;;4.65;1.70;;;9.70;99.90;;;;;;5071864;28;20121;-75
2023/04/26 10:24:44;;;;;;;7.68;2.15;;;9.60;99.90;;;;;;5053831;28;20044;-75
2023/04/26 10:27:10;;;;;;;2.80;1.30;;;9.20;99.90;;;;;;5071616;28;20081;-75
2023/04/26 10:29:54;;;;;;;4.57;1.20;;;9.20;99.90;;;;;;5071415;28;20048;-75
2023/04/26 10:32:23;;;;;;;2.78;1.15;;;9.20;99.90;;;;;;5070843;28;20493;-75
2023/04/26 10:35:12;;;;;;;3.30;1.20;;;9.30;99.90;;;;;;5081211;28;20032;-75
2023/04/26 10:37:59;;;;;;;4.57;1.40;;;9.40;99.90;;;;;;5080833;28;20041;-74
2023/04/26 10:40:31;;;;;;;6.15;1.58;;;9.80;99.90;;;;;;5069423;28;20119;-75
2023/04/26 10:43:14;;;;;;;4.78;1.48;;;10.50;99.90;;;;;;5080019;28;20041;-75
2023/04/26 10:45:45;;;;;;;4.40;1.20;;;11.40;99.90;;;;;;5069807;28;20105;-75
2023/04/26 10:48:17;;;;;;;6.40;1.42;;;11.80;99.90;;;;;;5055291;28;20044;-75
2023/04/26 10:51:00;;;;;;;3.42;1.00;;;11.50;99.90;;;;;;5071488;28;20078;-75
2023/04/26 10:53:30;;;;;;;4.57;1.02;;;11.10;99.90;;;;;;5071185;28;20075;-74
2023/04/26 10:55:56;;;;;;;3.75;0.98;;;10.50;99.90;;;;;;5054953;28;20036;-76
2023/04/26 10:58:39;;;;;;;5.38;1.33;;;10.20;99.90;;;;;;5071748;28;20050;-75
2023/04/26 11:01:16;;;;;;;9.43;1.20;;;9.90;99.90;;;;;;5071852;28;20040;-75
2023/04/26 11:04:09;;;;;;;4.07;0.90;;;9.70;99.90;;;;;;5070204;28;20052;-75
2023/04/26 11:06:53;;;;;;;3.80;1.00;;;9.60;99.90;;;;;;5046216;28;20132;-76
2023/04/26 11:09:41;;;;;;;2.05;0.82;;;9.60;99.90;;;;;;5070644;28;20465;-75
2023/04/26 11:12:15;;;;;;;4.65;0.90;;;9.50;99.90;;;;;;5100757;28;20040;-75
2023/04/26 11:14:42;;;;;;;7.78;1.10;;;9.50;99.90;;;;;;5052142;28;20631;-75
2023/04/26 11:17:08;;;;;;;;;;;9.70;99.90;;;;;;5055081;28;20055;-74
2023/04/26 11:19:34;;;;;;;6.80;1.40;;;9.70;99.90;;;;;;5069720;28;19923;-75
2023/04/26 11:22:01;;;;;;;5.30;1.00;;;9.90;99.90;;;;;;5070792;28;20040;-74
2023/04/26 11:24:31;;;;;;;3.35;0.93;;;9.90;99.90;;;;;;5053871;28;20073;-76
2023/04/26 11:26:58;;;;;;;5.53;0.80;;;9.90;99.90;;;;;;5097539;28;20041;-74
2023/04/26 11:29:24;;;;;;;3.80;1.00;;;10.10;99.90;;;;;;5071006;28;20143;-75
2023/04/26 11:31:51;;;;;;;2.13;0.95;;;10.20;99.90;;;;;;5073250;28;20048;-75
2023/04/26 11:34:23;;;;;;;3.65;0.90;;;10.30;99.90;;;;;;5074601;28;20032;-75
2023/04/26 11:36:50;;;;;;;4.97;1.30;;;10.30;99.90;;;;;;5057760;28;20611;-74
2023/04/26 11:39:15;;;;;;;6.00;1.10;;;10.30;99.90;;;;;;5073323;28;20040;-74
2023/04/26 11:41:41;;;;;;;3.08;1.23;;;10.30;99.90;;;;;;5057520;28;20063;-76
2023/04/26 11:44:09;;;;;;;5.20;1.27;;;10.40;99.90;;;;;;5074384;28;20039;-75
2023/04/26 11:46:35;;;;;;;3.00;1.38;;;10.60;99.90;;;;;;5057434;28;20111;-75
2023/04/26 11:49:01;;;;;;;2.90;1.00;;;10.80;99.90;;;;;;5057768;28;20075;-75
2023/04/26 11:51:28;;;;;;;4.32;0.98;;;10.80;99.90;;;;;;5074491;28;20040;-76
2023/04/26 11:53:54;;;;;;;3.72;1.15;;;10.90;99.90;;;;;;5074351;28;20043;-75
2023/04/26 11:56:21;;;;;;;4.17;1.23;;;11.00;99.90;;;;;;5058427;28;20052;-76
2023/04/26 11:58:49;;;;;;;3.42;1.05;;;10.80;99.90;;;;;;5074936;28;20631;-75
2023/04/26 12:01:23;;;;;;;2.42;0.90;;;10.80;99.90;;;;;;5074978;28;20042;-76
2023/04/26 12:03:51;;;;;;;3.92;1.10;;;10.90;99.90;;;;;;5074445;28;20040;-75
2023/04/26 12:06:17;;;;;;;4.65;1.00;;;10.90;99.90;;;;;;5074756;28;20126;-76
2023/04/26 12:08:50;;;;;;;4.38;1.20;;;11.00;99.90;;;;;;5057579;28;20126;-75
2023/04/26 12:11:16;;;;;;;2.67;0.90;;;11.00;99.90;;;;;;5074775;28;20044;-74
2023/04/26 12:13:42;;;;;;;2.17;0.85;;;10.90;99.90;;;;;;5073971;28;20056;-75
2023/04/26 12:16:08;;;;;;;3.03;0.90;;;11.00;99.90;;;;;;5057998;28;20043;-75
2023/04/26 12:18:34;;;;;;;3.55;1.33;;;11.20;99.90;;;;;;5074511;28;20074;-75
2023/04/26 12:21:00;;;;;;;6.82;1.25;;;11.30;99.90;;;;;;5058034;28;20539;-75
2023/04/26 12:23:35;;;;;;;2.55;1.00;;;11.50;99.90;;;;;;5074934;28;20071;-76
2023/04/26 12:26:02;;;;;;;3.92;1.10;;;11.90;99.90;;;;;;5074604;28;20031;-76
2023/04/26 12:28:28;;;;;;;3.20;1.25;;;12.10;99.90;;;;;;5058347;28;20040;-77
2023/04/26 12:30:54;;;;;;;3.10;0.57;;;12.10;99.90;;;;;;5058002;28;20035;-76
2023/04/26 12:33:21;;;;;;;2.20;0.88;;;11.90;99.90;;;;;;5074415;28;20048;-76
2023/04/26 12:35:49;;;;;;;5.25;0.95;;;11.50;99.90;;;;;;5074318;28;20062;-75
2023/04/26 12:38:14;;;;;;;3.25;1.05;;;11.40;99.90;;;;;;5074495;28;20445;-76
2023/04/26 12:40:41;;;;;;;5.97;0.95;;;11.00;99.90;;;;;;5057355;28;20035;-75
2023/04/26 12:43:07;;;;;;;3.05;1.00;;;10.60;99.90;;;;;;5073741;28;20040;-75
2023/04/26 12:45:33;;;;;;;5.63;0.98;;;10.40;99.90;;;;;;5057226;28;20036;-75
2023/04/26 12:47:59;;;;;;;4.75;0.90;;;10.40;99.90;;;;;;5074325;28;20040;-75
2023/04/26 12:50:25;;;;;;;3.63;1.00;;;10.50;99.90;;;;;;5073556;28;20044;-76
2023/04/26 12:52:51;;;;;;;4.05;0.88;;;10.50;99.90;;;;;;5072764;28;20298;-76
2023/04/26 12:55:17;;;;;;;2.75;0.98;;;10.40;99.90;;;;;;5039783;28;20166;-75